createdAt,value
2023-04-26T00:00:10.051Z,16.48
2023-04-26T00:02:38.621Z,21.48
2023-04-26T00:05:09.389Z,9.88
2023-04-26T00:07:39.371Z,11.82
2023-04-26T00:10:08.589Z,10.17
2023-04-26T00:12:37.492Z,9.45
2023-04-26T00:15:06.569Z,9.02
2023-04-26T00:17:35.039Z,10.60
2023-04-26T00:20:04.696Z,12.23
2023-04-26T00:22:33.039Z,10.73
2023-04-26T00:25:02.657Z,8.55
2023-04-26T00:27:30.939Z,11.95
2023-04-26T00:29:59.218Z,9.55
2023-04-26T00:32:27.534Z,16.45
2023-04-26T00:34:55.907Z,7.93
2023-04-26T00:37:24.896Z,13.27
2023-04-26T00:39:53.202Z,8.52
2023-04-26T00:42:22.857Z,10.93
2023-04-26T00:44:55.206Z,8.70
2023-04-26T00:47:23.473Z,10.98
2023-04-26T00:49:51.848Z,9.65
2023-04-26T00:52:20.160Z,13.73
2023-04-26T00:54:49.606Z,13.10
2023-04-26T00:57:18.037Z,10.38
2023-04-26T00:59:47.658Z,12.30
2023-04-26T01:02:16.147Z,14.00
2023-04-26T01:04:45.730Z,13.63
2023-04-26T01:07:14.047Z,11.73
2023-04-26T01:09:43.124Z,14.20
2023-04-26T01:12:12.387Z,15.35
2023-04-26T01:14:41.114Z,12.57
2023-04-26T01:17:10.890Z,12.98
2023-04-26T01:19:48.192Z,13.52
2023-04-26T01:22:16.576Z,20.02
2023-04-26T01:24:48.710Z,20.70
2023-04-26T01:27:17.677Z,16.50
2023-04-26T01:29:46.279Z,15.25
2023-04-26T01:32:14.525Z,19.38
2023-04-26T01:34:42.794Z,23.33
2023-04-26T01:37:11.548Z,11.27
2023-04-26T01:39:39.864Z,11.85
2023-04-26T01:42:09.472Z,21.55
2023-04-26T01:44:37.743Z,16.95
2023-04-26T01:47:06.157Z,13.98
2023-04-26T01:49:34.557Z,16.63
2023-04-26T01:52:03.233Z,16.05
2023-04-26T01:54:31.604Z,15.55
2023-04-26T01:56:59.866Z,15.38
2023-04-26T01:59:29.524Z,25.60
2023-04-26T02:01:57.764Z,14.27
2023-04-26T02:04:26.653Z,23.75
2023-04-26T02:06:54.962Z,16.13
2023-04-26T02:09:23.183Z,22.13
2023-04-26T02:11:51.495Z,15.38
2023-04-26T02:14:20.337Z,26.50
2023-04-26T02:16:49.947Z,13.13
2023-04-26T02:19:18.183Z,23.23
2023-04-26T02:21:53.746Z,24.25
2023-04-26T02:24:23.201Z,17.38
2023-04-26T02:26:51.853Z,15.88
2023-04-26T02:29:26.883Z,18.58
2023-04-26T02:32:06.332Z,12.07
2023-04-26T02:34:34.718Z,12.20
2023-04-26T02:37:04.239Z,11.85
2023-04-26T02:39:32.709Z,13.98
2023-04-26T02:42:00.975Z,12.80
2023-04-26T02:44:30.945Z,14.50
2023-04-26T02:46:59.331Z,12.52
2023-04-26T02:49:29.232Z,13.63
2023-04-26T02:51:57.653Z,9.38
2023-04-26T02:54:25.883Z,20.27
2023-04-26T02:56:55.365Z,12.95
2023-04-26T02:59:23.618Z,20.00
2023-04-26T03:01:51.926Z,15.38
2023-04-26T03:04:20.772Z,18.80
2023-04-26T03:06:50.558Z,16.27
2023-04-26T03:09:18.942Z,16.10
2023-04-26T03:11:49.600Z,17.42
2023-04-26T03:14:18.444Z,19.40
2023-04-26T03:16:48.423Z,19.92
2023-04-26T03:19:16.796Z,16.58
2023-04-26T03:21:45.086Z,14.82
2023-04-26T03:24:14.705Z,27.17
2023-04-26T03:26:42.964Z,16.48
2023-04-26T03:29:12.511Z,14.48
2023-04-26T03:31:40.929Z,25.77
2023-04-26T03:34:09.350Z,16.88
2023-04-26T03:36:38.260Z,24.35
2023-04-26T03:39:06.850Z,25.50
2023-04-26T03:41:39.614Z,29.52
2023-04-26T03:44:08.148Z,23.17
2023-04-26T03:46:36.516Z,33.08
2023-04-26T03:49:04.821Z,19.40
2023-04-26T03:51:33.072Z,32.03
2023-04-26T03:54:01.337Z,25.25
2023-04-26T03:56:29.628Z,32.78
2023-04-26T03:58:59.260Z,20.08
2023-04-26T04:01:27.895Z,29.48
2023-04-26T04:03:56.602Z,38.80
2023-04-26T04:06:25.195Z,33.95
2023-04-26T04:08:53.813Z,26.30
2023-04-26T04:11:23.310Z,32.97
2023-04-26T04:13:51.594Z,26.55
2023-04-26T04:16:21.824Z,32.15
2023-04-26T04:18:50.557Z,22.17
2023-04-26T04:21:18.999Z,27.58
2023-04-26T04:23:47.814Z,15.68
2023-04-26T04:26:16.181Z,27.65
2023-04-26T04:28:45.573Z,23.27
2023-04-26T04:31:14.027Z,21.33
2023-04-26T04:33:43.662Z,17.85
2023-04-26T04:36:11.928Z,20.23
2023-04-26T04:38:40.206Z,21.35
2023-04-26T04:41:08.707Z,22.10
2023-04-26T04:43:37.215Z,19.40
2023-04-26T04:46:05.562Z,15.45
2023-04-26T04:48:34.259Z,35.75
2023-04-26T04:51:04.142Z,17.42
2023-04-26T04:53:32.407Z,34.25
2023-04-26T04:56:00.815Z,23.65
2023-04-26T04:58:29.109Z,33.50
2023-04-26T05:01:01.271Z,24.45
2023-04-26T05:03:30.068Z,26.38
2023-04-26T05:05:58.504Z,23.17
2023-04-26T05:08:28.126Z,25.38
2023-04-26T05:10:56.866Z,15.82
2023-04-26T05:13:25.219Z,40.80
2023-04-26T05:15:53.917Z,15.77
2023-04-26T05:18:22.223Z,26.70
2023-04-26T05:20:50.578Z,13.43
2023-04-26T05:23:18.819Z,10.88
2023-04-26T05:25:48.461Z,20.08
2023-04-26T05:28:16.727Z,13.57
2023-04-26T05:30:45.023Z,26.23
2023-04-26T05:33:13.781Z,19.38
2023-04-26T05:35:42.101Z,14.55
2023-04-26T05:38:10.413Z,11.00
2023-04-26T05:40:38.625Z,15.15
2023-04-26T05:43:08.421Z,12.85
2023-04-26T05:45:36.729Z,12.65
2023-04-26T05:48:05.477Z,20.67
2023-04-26T05:50:33.897Z,31.90
2023-04-26T05:53:02.119Z,21.70
2023-04-26T05:55:30.729Z,29.80
2023-04-26T05:57:59.337Z,30.52
2023-04-26T06:00:29.157Z,23.33
2023-04-26T06:02:57.576Z,22.67
2023-04-26T06:05:26.085Z,23.30
2023-04-26T06:07:54.533Z,25.88
2023-04-26T06:10:22.878Z,20.73
2023-04-26T06:12:51.201Z,21.50
2023-04-26T06:15:19.632Z,16.58
2023-04-26T06:17:49.260Z,23.08
2023-04-26T06:20:17.524Z,23.10
2023-04-26T06:22:45.873Z,15.77
2023-04-26T06:25:14.467Z,16.48
2023-04-26T06:27:42.734Z,13.43
2023-04-26T06:30:11.879Z,15.85
2023-04-26T06:32:41.773Z,19.60
2023-04-26T06:35:11.889Z,17.38
2023-04-26T06:37:40.259Z,19.00
2023-04-26T06:40:09.773Z,17.13
2023-04-26T06:42:38.061Z,25.30
2023-04-26T06:45:07.193Z,21.00
2023-04-26T06:47:35.509Z,19.73
2023-04-26T06:50:04.697Z,25.50
2023-04-26T06:52:34.428Z,30.20
2023-04-26T06:55:03.401Z,10.18
2023-04-26T06:57:31.653Z,14.23
2023-04-26T06:59:59.910Z,17.92
2023-04-26T07:02:28.257Z,14.02
2023-04-26T07:04:57.764Z,14.05
2023-04-26T07:07:26.272Z,20.65
2023-04-26T07:09:55.934Z,9.80
2023-04-26T07:12:24.169Z,9.33
2023-04-26T07:14:52.447Z,8.63
2023-04-26T07:17:21.599Z,8.93
2023-04-26T07:19:49.869Z,9.50
2023-04-26T07:22:18.139Z,12.57
2023-04-26T07:24:46.418Z,14.85
2023-04-26T07:27:16.358Z,10.40
2023-04-26T07:29:44.580Z,11.63
2023-04-26T07:32:13.204Z,11.23
2023-04-26T07:34:41.975Z,10.38
2023-04-26T07:37:10.272Z,8.80
2023-04-26T07:39:38.480Z,15.13
2023-04-26T07:42:07.256Z,12.40
2023-04-26T07:44:36.965Z,12.60
2023-04-26T07:47:05.274Z,11.05
2023-04-26T07:49:33.521Z,10.90
2023-04-26T07:52:02.477Z,9.52
2023-04-26T07:54:31.021Z,10.88
2023-04-26T07:56:59.224Z,12.23
2023-04-26T07:59:27.515Z,15.95
2023-04-26T08:01:57.272Z,6.50
2023-04-26T08:04:32.830Z,8.95
2023-04-26T08:07:02.378Z,7.68
2023-04-26T08:09:31.062Z,9.05
2023-04-26T08:11:59.408Z,10.85
2023-04-26T08:14:28.765Z,8.88
2023-04-26T08:16:58.465Z,10.38
2023-04-26T08:19:26.881Z,9.80
2023-04-26T08:21:55.104Z,10.52
2023-04-26T08:24:23.581Z,8.75
2023-04-26T08:26:51.964Z,12.88
2023-04-26T08:29:20.686Z,10.02
2023-04-26T08:31:48.932Z,7.50
2023-04-26T08:34:18.567Z,12.23
2023-04-26T08:36:47.136Z,10.13
2023-04-26T08:39:15.393Z,9.50
2023-04-26T08:41:44.804Z,8.38
2023-04-26T08:44:13.074Z,10.25
2023-04-26T08:46:47.828Z,8.57
2023-04-26T08:49:24.121Z,10.82
2023-04-26T08:51:52.759Z,10.38
2023-04-26T08:54:21.325Z,10.80
2023-04-26T08:56:50.190Z,7.03
2023-04-26T08:59:18.880Z,8.18
2023-04-26T09:01:47.287Z,7.47
2023-04-26T09:04:15.782Z,9.30
2023-04-26T09:06:45.757Z,9.95
2023-04-26T09:09:14.988Z,11.10
2023-04-26T09:11:56.728Z,11.23
2023-04-26T09:14:25.666Z,12.43
2023-04-26T09:16:54.432Z,10.80
2023-04-26T09:19:37.012Z,5.70
2023-04-26T09:22:07.534Z,12.25
2023-04-26T09:27:16.754Z,8.15
2023-04-26T09:29:58.833Z,9.77
2023-04-26T09:32:27.200Z,9.23
2023-04-26T09:34:55.702Z,6.40
2023-04-26T09:37:25.321Z,7.70
2023-04-26T09:39:54.172Z,7.33
2023-04-26T09:42:22.435Z,7.68
2023-04-26T09:44:51.859Z,6.85
2023-04-26T09:47:23.301Z,8.77
2023-04-26T09:49:52.685Z,7.93
2023-04-26T09:52:21.694Z,8.73
2023-04-26T09:54:53.186Z,13.05
2023-04-26T09:57:23.674Z,14.05
2023-04-26T10:02:25.289Z,14.48
2023-04-26T10:04:55.192Z,15.98
2023-04-26T10:07:25.589Z,16.25
2023-04-26T10:09:55.963Z,10.77
2023-04-26T10:12:24.398Z,12.43
2023-04-26T10:14:52.717Z,16.38
2023-04-26T10:17:21.886Z,10.73
2023-04-26T10:19:53.275Z,7.07
2023-04-26T10:22:23.972Z,7.95
2023-04-26T10:24:53.183Z,11.55
2023-04-26T10:27:50.198Z,6.03
2023-04-26T10:30:20.094Z,8.65
2023-04-26T10:33:14.804Z,13.57
2023-04-26T10:36:06.006Z,20.98
2023-04-26T10:38:34.863Z,20.60
2023-04-26T10:41:31.967Z,13.32
2023-04-26T10:44:21.122Z,13.18
2023-04-26T10:46:52.713Z,15.93
2023-04-26T10:49:24.934Z,7.07
2023-04-26T10:52:23.051Z,12.40
2023-04-26T10:54:56.287Z,18.63
2023-04-26T10:57:27.045Z,16.05
2023-04-26T11:00:32.694Z,20.15
2023-04-26T11:03:06.575Z,19.42
2023-04-26T11:05:43.980Z,27.48
2023-04-26T11:08:17.603Z,67.25
2023-04-26T11:10:50.763Z,26.67
2023-04-26T11:13:19.525Z,11.95
2023-04-26T11:15:53.843Z,26.40
2023-04-26T11:18:22.567Z,20.25
2023-04-26T11:20:50.852Z,15.57
2023-04-26T11:23:19.536Z,20.75
2023-04-26T11:25:48.528Z,54.65
2023-04-26T11:28:16.998Z,26.35
2023-04-26T11:30:45.359Z,57.92
2023-04-26T11:33:20.192Z,78.25
2023-04-26T11:35:48.968Z,43.45
2023-04-26T11:38:17.699Z,14.93
2023-04-26T11:40:46.161Z,11.60
2023-04-26T11:43:15.547Z,8.00
2023-04-26T11:45:44.200Z,13.88
2023-04-26T11:48:13.767Z,8.48
2023-04-26T11:50:43.666Z,7.23
2023-04-26T11:53:11.954Z,14.63
2023-04-26T11:55:41.870Z,16.35
2023-04-26T11:58:12.546Z,9.38
2023-04-26T12:00:59.067Z,14.18
2023-04-26T12:03:32.316Z,5.50
2023-04-26T12:06:02.279Z,12.27
2023-04-26T12:08:30.985Z,9.13
2023-04-26T12:11:01.955Z,13.05
2023-04-26T12:13:30.693Z,16.95
2023-04-26T12:15:59.100Z,5.63
2023-04-26T12:18:32.450Z,5.38
2023-04-26T12:21:02.602Z,8.75
2023-04-26T12:23:39.337Z,5.18
2023-04-26T12:26:11.029Z,5.88
2023-04-26T12:28:39.765Z,12.00
2023-04-26T12:31:08.403Z,11.82
2023-04-26T12:33:37.513Z,7.85
2023-04-26T12:36:11.812Z,15.00
2023-04-26T12:38:40.599Z,13.75
2023-04-26T12:41:08.933Z,8.95
2023-04-26T12:43:37.131Z,8.63
2023-04-26T12:46:05.695Z,96.13
2023-04-26T12:48:34.061Z,14.35
2023-04-26T12:51:02.387Z,38.83
2023-04-26T12:53:32.258Z,17.17
2023-04-26T12:56:00.789Z,11.05
2023-04-26T12:58:29.177Z,16.70
2023-04-26T13:00:57.737Z,17.65
2023-04-26T13:03:26.484Z,35.70
2023-04-26T13:05:54.870Z,42.25
2023-04-26T13:08:24.359Z,29.60
2023-04-26T13:10:53.952Z,32.58
2023-04-26T13:13:29.251Z,12.57
2023-04-26T13:16:04.526Z,6.55
2023-04-26T13:18:32.782Z,7.30
2023-04-26T13:21:01.086Z,19.50
2023-04-26T13:23:29.350Z,6.00
2023-04-26T13:25:59.098Z,9.40
2023-04-26T13:28:27.411Z,10.43
2023-04-26T13:30:56.026Z,5.00
2023-04-26T13:33:24.433Z,6.78
2023-04-26T13:35:53.070Z,7.93
2023-04-26T13:38:21.476Z,5.93
2023-04-26T13:40:49.790Z,10.77
2023-04-26T13:43:19.484Z,8.23
2023-04-26T13:45:47.931Z,11.20
2023-04-26T13:48:16.643Z,5.90
2023-04-26T13:50:45.122Z,6.68
2023-04-26T13:53:13.405Z,6.18
2023-04-26T13:55:42.125Z,4.75
2023-04-26T13:58:10.450Z,12.73
2023-04-26T14:00:40.037Z,5.28
2023-04-26T14:03:08.500Z,9.53
2023-04-26T14:05:37.006Z,8.73
2023-04-26T14:08:06.101Z,20.15
2023-04-26T14:10:34.443Z,12.93
2023-04-26T14:13:02.749Z,10.38
2023-04-26T14:15:31.120Z,9.55
2023-04-26T14:18:01.151Z,8.68
2023-04-26T14:20:29.999Z,10.90
2023-04-26T14:22:58.694Z,19.95
2023-04-26T14:25:27.420Z,8.30
2023-04-26T14:27:55.865Z,13.77
2023-04-26T14:30:24.735Z,7.05
2023-04-26T14:32:53.134Z,6.55
2023-04-26T14:35:22.816Z,9.35
2023-04-26T14:37:51.169Z,10.40
2023-04-26T14:40:19.694Z,7.47
2023-04-26T14:42:47.942Z,13.73
2023-04-26T14:45:16.446Z,13.82
2023-04-26T14:47:44.811Z,16.55
2023-04-26T14:50:14.105Z,5.90
2023-04-26T14:52:43.783Z,17.10
2023-04-26T14:55:12.179Z,7.87
2023-04-26T14:57:41.837Z,7.93
2023-04-26T15:00:15.396Z,4.90
2023-04-26T15:02:44.004Z,20.40
2023-04-26T15:05:12.973Z,21.83
2023-04-26T15:07:42.982Z,9.43
2023-04-26T15:10:11.409Z,3.63
2023-04-26T15:12:39.679Z,3.78
2023-04-26T15:15:09.097Z,6.32
2023-04-26T15:17:37.577Z,3.67
2023-04-26T15:20:07.328Z,6.05
2023-04-26T15:22:38.594Z,3.43
2023-04-26T15:25:10.986Z,3.35
2023-04-26T15:27:39.280Z,4.47
2023-04-26T15:30:09.506Z,5.00
2023-04-26T15:32:38.226Z,5.28
2023-04-26T15:35:07.530Z,8.25
2023-04-26T15:37:38.051Z,5.18
2023-04-26T15:42:40.632Z,5.35
2023-04-26T15:45:10.037Z,3.73
2023-04-26T15:47:38.407Z,4.95
2023-04-26T15:50:08.039Z,2.97
2023-04-26T15:52:38.893Z,4.72
2023-04-26T15:55:08.262Z,5.25
2023-04-26T15:57:36.793Z,8.40
2023-04-26T16:00:09.660Z,5.70
2023-04-26T16:02:38.114Z,2.97
2023-04-26T16:05:08.366Z,5.65
2023-04-26T16:07:38.744Z,7.20
2023-04-26T16:10:09.166Z,6.50
2023-04-26T16:12:39.678Z,3.28
2023-04-26T16:17:38.905Z,5.38
2023-04-26T16:20:08.855Z,6.72
2023-04-26T16:22:37.577Z,3.25
2023-04-26T16:25:06.838Z,3.88
2023-04-26T16:27:35.355Z,4.30
2023-04-26T16:30:03.929Z,5.05
2023-04-26T16:32:34.174Z,5.35
2023-04-26T16:35:02.579Z,9.40
2023-04-26T16:37:31.478Z,8.05
2023-04-26T16:40:00.238Z,1.13
2023-04-26T16:42:31.018Z,1.85
2023-04-26T16:44:59.276Z,5.10
2023-04-26T16:47:27.638Z,4.07
2023-04-26T16:49:57.298Z,4.75
2023-04-26T16:52:25.623Z,6.00
2023-04-26T16:54:54.016Z,7.85
2023-04-26T16:57:22.263Z,3.70
2023-04-26T16:59:51.475Z,5.15
2023-04-26T17:02:19.950Z,5.57
2023-04-26T17:04:50.026Z,3.15
2023-04-26T17:07:19.886Z,4.28
2023-04-26T17:09:48.107Z,5.03
2023-04-26T17:12:16.397Z,5.28
2023-04-26T17:14:44.628Z,4.80
2023-04-26T17:17:12.901Z,4.80
2023-04-26T17:19:41.171Z,3.42
2023-04-26T17:22:09.400Z,4.25
2023-04-26T17:24:39.026Z,7.40
2023-04-26T17:27:08.195Z,7.05
2023-04-26T17:29:36.449Z,3.58
2023-04-26T17:32:04.913Z,8.57
2023-04-26T17:34:33.376Z,4.63
2023-04-26T17:37:01.676Z,5.20
2023-04-26T17:39:29.974Z,4.85
2023-04-26T17:41:59.543Z,9.00
2023-04-26T17:44:27.795Z,5.90
2023-04-26T17:46:56.000Z,8.02
2023-04-26T17:49:25.821Z,5.45
2023-04-26T17:51:54.135Z,6.63
2023-04-26T17:54:22.361Z,3.35
2023-04-26T17:56:50.904Z,3.80
2023-04-26T17:59:20.461Z,9.45
2023-04-26T18:01:48.866Z,4.32
2023-04-26T18:04:17.360Z,5.63
2023-04-26T18:06:46.059Z,4.82
2023-04-26T18:09:14.334Z,6.05
2023-04-26T18:11:47.609Z,6.35
2023-04-26T18:14:16.295Z,13.63
2023-04-26T18:16:46.295Z,9.00
2023-04-26T18:19:14.598Z,5.97
2023-04-26T18:21:42.915Z,6.57
2023-04-26T18:24:11.284Z,6.70
2023-04-26T18:26:41.040Z,4.68
2023-04-26T18:29:09.522Z,3.67
2023-04-26T18:31:37.844Z,5.03
2023-04-26T18:34:07.841Z,6.60
2023-04-26T18:36:36.378Z,6.53
2023-04-26T18:39:04.926Z,5.28
2023-04-26T18:41:33.346Z,9.23
2023-04-26T18:44:01.641Z,5.50
2023-04-26T18:46:29.980Z,4.90
2023-04-26T18:48:58.367Z,4.47
2023-04-26T18:51:27.970Z,5.47
2023-04-26T18:53:56.922Z,4.18
2023-04-26T18:56:25.534Z,5.78
2023-04-26T18:58:53.810Z,7.85
2023-04-26T19:01:22.220Z,8.25
2023-04-26T19:03:50.633Z,5.97
2023-04-26T19:06:19.016Z,4.75
2023-04-26T19:08:48.669Z,6.60
2023-04-26T19:11:17.017Z,6.00
2023-04-26T19:13:45.304Z,5.40
2023-04-26T19:16:13.583Z,6.18
2023-04-26T19:18:44.481Z,6.00
2023-04-26T19:21:12.769Z,4.28
2023-04-26T19:23:41.032Z,5.40
2023-04-26T19:26:13.165Z,6.68
2023-04-26T19:28:42.299Z,8.23
2023-04-26T19:31:10.727Z,9.93
2023-04-26T19:33:40.387Z,8.02
2023-04-26T19:36:10.441Z,6.78
2023-04-26T19:38:38.729Z,9.30
2023-04-26T19:41:07.053Z,7.70
2023-04-26T19:43:36.701Z,5.55
2023-04-26T19:46:12.172Z,7.85
2023-04-26T19:48:40.454Z,7.68
2023-04-26T19:51:08.876Z,5.72
2023-04-26T19:53:37.098Z,8.50
2023-04-26T19:56:05.603Z,7.28
2023-04-26T19:58:33.902Z,11.98
2023-04-26T20:01:03.681Z,6.65
2023-04-26T20:03:33.278Z,5.03
2023-04-26T20:06:01.857Z,8.63
2023-04-26T20:08:31.383Z,4.93
2023-04-26T20:11:03.471Z,9.30
2023-04-26T20:13:31.777Z,7.53
2023-04-26T20:16:00.769Z,7.72
2023-04-26T20:18:30.838Z,5.55
2023-04-26T20:20:59.140Z,8.57
2023-04-26T20:23:27.466Z,5.68
2023-04-26T20:25:55.784Z,6.18
2023-04-26T20:28:24.544Z,6.00
2023-04-26T20:30:52.892Z,11.18
2023-04-26T20:33:21.374Z,6.13
2023-04-26T20:35:54.229Z,8.07
2023-04-26T20:38:23.226Z,6.35
2023-04-26T20:40:51.623Z,5.40
2023-04-26T20:43:19.986Z,8.73
2023-04-26T20:45:48.298Z,8.43
2023-04-26T20:48:16.562Z,9.05
2023-04-26T20:50:44.881Z,6.72
2023-04-26T20:53:14.526Z,5.70
2023-04-26T20:55:42.746Z,5.87
2023-04-26T20:58:11.089Z,6.82
2023-04-26T21:00:39.373Z,9.07
2023-04-26T21:03:08.426Z,7.78
2023-04-26T21:05:36.854Z,5.47
2023-04-26T21:08:06.027Z,8.82
2023-04-26T21:10:35.715Z,9.68
2023-04-26T21:13:04.123Z,9.80
2023-04-26T21:15:32.432Z,5.40
2023-04-26T21:18:01.052Z,5.50
2023-04-26T21:20:29.358Z,6.65
2023-04-26T21:22:57.571Z,9.05
2023-04-26T21:25:27.919Z,9.60
2023-04-26T21:27:58.728Z,6.93
2023-04-26T21:30:26.997Z,7.63
2023-04-26T21:32:58.307Z,5.22
2023-04-26T21:35:26.830Z,7.97
2023-04-26T21:37:55.079Z,8.18
2023-04-26T21:40:23.328Z,6.20
2023-04-26T21:43:04.022Z,6.28
2023-04-26T21:45:35.257Z,7.43
2023-04-26T21:48:03.720Z,6.95
2023-04-26T21:50:32.005Z,5.30
2023-04-26T21:53:00.235Z,6.65
2023-04-26T21:55:28.452Z,6.70
2023-04-26T21:57:56.752Z,4.80
2023-04-26T22:00:27.159Z,10.18
2023-04-26T22:02:56.990Z,7.00
2023-04-26T22:05:25.972Z,5.70
2023-04-26T22:07:54.529Z,4.20
2023-04-26T22:10:22.842Z,7.00
2023-04-26T22:12:51.358Z,9.02
2023-04-26T22:15:19.889Z,5.72
2023-04-26T22:17:48.134Z,6.10
2023-04-26T22:20:17.806Z,4.40
2023-04-26T22:22:46.273Z,6.77
2023-04-26T22:25:14.539Z,6.43
2023-04-26T22:27:42.853Z,4.35
2023-04-26T22:30:22.865Z,4.50
2023-04-26T22:32:54.751Z,6.57
2023-04-26T22:35:25.548Z,6.60
2023-04-26T22:37:53.845Z,6.80
2023-04-26T22:40:22.144Z,7.57
2023-04-26T22:42:50.489Z,7.75
2023-04-26T22:45:18.822Z,7.15
2023-04-26T22:47:47.224Z,7.75
2023-04-26T22:50:15.476Z,6.57
2023-04-26T22:52:45.102Z,9.52
2023-04-26T22:55:13.409Z,5.75
2023-04-26T22:57:41.717Z,7.93
2023-04-26T23:00:12.460Z,7.25
2023-04-26T23:02:41.137Z,7.47
2023-04-26T23:05:10.607Z,6.35
2023-04-26T23:07:39.274Z,9.00
2023-04-26T23:10:09.858Z,7.38
2023-04-26T23:15:07.470Z,6.20
2023-04-26T23:17:35.751Z,6.57
2023-04-26T23:20:11.948Z,7.15
2023-04-26T23:22:41.935Z,11.38
2023-04-26T23:25:11.892Z,7.07
2023-04-26T23:27:40.092Z,5.55
2023-04-26T23:30:09.326Z,7.63
2023-04-26T23:32:37.673Z,11.13
2023-04-26T23:35:06.813Z,8.98
2023-04-26T23:37:35.327Z,9.90
2023-04-26T23:40:05.608Z,6.90
2023-04-26T23:42:35.558Z,5.93
2023-04-26T23:45:04.420Z,10.88
2023-04-26T23:47:32.700Z,6.22
2023-04-26T23:50:00.995Z,5.13
2023-04-26T23:52:29.260Z,7.63
2023-04-26T23:54:57.489Z,8.18
2023-04-26T23:57:25.825Z,6.63
2023-04-26T23:59:55.693Z,9.55
